Terminal Aerodrome Forecast
Issued by NWS St Louis, MO

Home | Current Version | Previous Version | Text Only | Print | Product List | Glossary On
Versions: 1 2 3 4 5 6 7 8 9 10 11 12 13 14 15 16 17 18 19 20 21 22 23 24 25 26 27 28 29 30 31 32 33
000
FTUS43 KLSX 220300 AAA
TAFSTL
TAF AMD
KSTL 220300Z 2203/2306 09010KT P6SM OVC150
     FM220900 09010KT 6SM -SHRA OVC070
     FM221300 08010G20KT P6SM OVC050
     FM222200 08015KT P6SM SCT025 OVC040
     FM230200 07010G16KT P6SM OVC040=

USA.gov is the U.S. government's official web portal to all federal, state and local government web resources and services.